createdAt,value
2018-07-28T00:01:39.418Z,20.50
2018-07-28T00:04:07.866Z,20.40
2018-07-28T00:06:36.238Z,20.40
2018-07-28T00:09:08.285Z,20.40
2018-07-28T00:11:36.818Z,20.40
2018-07-28T00:14:05.320Z,20.40
2018-07-28T00:16:33.770Z,20.40
2018-07-28T00:19:02.186Z,20.30
2018-07-28T00:21:30.668Z,20.30
2018-07-28T00:23:59.041Z,20.30
2018-07-28T00:26:27.422Z,20.20
2018-07-28T00:28:55.911Z,20.10
2018-07-28T00:31:24.401Z,20.10
2018-07-28T00:33:52.912Z,20.00
2018-07-28T00:36:21.322Z,19.90
2018-07-28T00:38:49.732Z,19.80
2018-07-28T00:41:18.065Z,19.80
2018-07-28T00:43:46.523Z,19.80
2018-07-28T00:46:14.884Z,19.80
2018-07-28T00:48:43.319Z,19.80
2018-07-28T00:51:11.735Z,19.70
2018-07-28T00:53:40.095Z,19.80
2018-07-28T00:56:08.493Z,19.80
2018-07-28T00:58:36.883Z,19.70
2018-07-28T01:01:05.325Z,19.80
2018-07-28T01:03:33.639Z,19.70
2018-07-28T01:06:02.034Z,19.70
2018-07-28T01:08:30.439Z,19.60
2018-07-28T01:10:58.766Z,19.60
2018-07-28T01:13:27.235Z,19.60
2018-07-28T01:15:55.762Z,19.50
2018-07-28T01:18:24.176Z,19.40
2018-07-28T01:20:52.543Z,19.40
2018-07-28T01:23:21.023Z,19.40
2018-07-28T01:25:49.423Z,19.30
2018-07-28T01:28:17.801Z,19.30
2018-07-28T01:30:46.198Z,19.20
2018-07-28T01:33:14.534Z,19.10
2018-07-28T01:35:42.986Z,19.20
2018-07-28T01:38:11.370Z,19.20
2018-07-28T01:40:39.788Z,19.10
2018-07-28T01:43:08.365Z,19.10
2018-07-28T01:45:36.803Z,19.10
2018-07-28T01:48:05.198Z,19.10
2018-07-28T01:50:33.725Z,19.00
2018-07-28T01:53:02.161Z,19.00
2018-07-28T01:55:30.574Z,19.00
2018-07-28T01:57:58.924Z,19.00
2018-07-28T02:00:27.296Z,19.00
2018-07-28T02:02:55.683Z,19.00
2018-07-28T02:05:24.120Z,18.90
2018-07-28T02:07:52.574Z,18.90
2018-07-28T02:10:20.996Z,18.90
2018-07-28T02:12:49.499Z,18.90
2018-07-28T02:15:17.947Z,18.80
2018-07-28T02:17:46.361Z,18.80
2018-07-28T02:20:14.903Z,18.80
2018-07-28T02:22:43.264Z,18.70
2018-07-28T02:25:12.031Z,18.70
2018-07-28T02:27:40.454Z,18.80
2018-07-28T02:30:08.868Z,18.90
2018-07-28T02:32:37.545Z,18.80
2018-07-28T02:35:06.959Z,18.90
2018-07-28T02:37:35.357Z,18.90
2018-07-28T02:40:03.826Z,18.80
2018-07-28T02:42:32.161Z,18.80
2018-07-28T02:45:00.593Z,18.80
2018-07-28T02:47:28.945Z,18.80
2018-07-28T02:49:57.360Z,18.70
2018-07-28T02:52:25.769Z,18.70
2018-07-28T02:54:54.126Z,18.60
2018-07-28T02:57:22.446Z,18.60
2018-07-28T02:59:50.880Z,18.60
2018-07-28T03:02:19.248Z,18.60
2018-07-28T03:04:47.654Z,18.60
2018-07-28T03:07:16.093Z,18.60
2018-07-28T03:09:44.551Z,18.50
2018-07-28T03:12:13.011Z,18.40
2018-07-28T03:14:41.355Z,18.40
2018-07-28T03:17:09.737Z,18.40
2018-07-28T03:19:38.158Z,18.40
2018-07-28T03:22:07.146Z,18.50
2018-07-28T03:24:35.687Z,18.40
2018-07-28T03:27:04.366Z,18.40
2018-07-28T03:29:32.733Z,18.40
2018-07-28T03:32:01.581Z,18.40
2018-07-28T03:34:30.031Z,18.40
2018-07-28T03:36:58.437Z,18.40
2018-07-28T03:39:26.882Z,18.40
2018-07-28T03:41:55.250Z,18.30
2018-07-28T03:44:23.711Z,18.30
2018-07-28T03:46:52.078Z,18.30
2018-07-28T03:49:20.549Z,18.20
2018-07-28T03:51:48.795Z,18.20
2018-07-28T03:54:17.211Z,18.10
2018-07-28T03:56:45.652Z,18.20
2018-07-28T03:59:14.019Z,18.20
2018-07-28T04:01:42.435Z,18.20
2018-07-28T04:04:10.964Z,18.20
2018-07-28T04:06:39.410Z,18.20
2018-07-28T04:09:08.616Z,18.20
2018-07-28T04:11:37.004Z,18.20
2018-07-28T04:14:05.426Z,18.20
2018-07-28T04:16:33.798Z,18.20
2018-07-28T04:19:02.225Z,18.30
2018-07-28T04:21:30.684Z,18.30
2018-07-28T04:23:59.059Z,18.30
2018-07-28T04:26:27.520Z,18.30
2018-07-28T04:28:55.919Z,18.30
2018-07-28T04:31:24.333Z,18.30
2018-07-28T04:33:52.706Z,18.40
2018-07-28T04:36:21.160Z,18.40
2018-07-28T04:38:49.487Z,18.40
2018-07-28T04:41:17.865Z,18.50
2018-07-28T04:43:46.248Z,18.60
2018-07-28T04:46:14.661Z,18.70
2018-07-28T04:48:43.050Z,18.70
2018-07-28T04:51:11.465Z,18.70
2018-07-28T04:53:39.865Z,18.80
2018-07-28T04:56:08.263Z,18.90
2018-07-28T04:58:36.675Z,19.00
2018-07-28T05:01:05.112Z,19.10
2018-07-28T05:03:33.509Z,19.10
2018-07-28T05:06:01.850Z,19.30
2018-07-28T05:08:30.248Z,19.30
2018-07-28T05:10:58.699Z,19.40
2018-07-28T05:13:27.126Z,19.50
2018-07-28T05:15:55.673Z,19.60
2018-07-28T05:18:24.063Z,20.00
2018-07-28T05:20:52.528Z,21.20
2018-07-28T05:23:20.981Z,22.50
2018-07-28T05:25:49.435Z,23.20
2018-07-28T05:28:17.772Z,23.70
2018-07-28T05:30:46.269Z,24.50
2018-07-28T05:33:14.747Z,25.50
2018-07-28T05:35:43.145Z,26.20
2018-07-28T05:38:11.652Z,26.80
2018-07-28T05:40:40.098Z,27.40
2018-07-28T05:43:08.517Z,27.60
2018-07-28T05:45:36.901Z,27.90
2018-07-28T05:48:05.543Z,28.00
2018-07-28T05:50:34.013Z,28.30
2018-07-28T05:53:02.355Z,28.70
2018-07-28T05:55:30.763Z,29.00
2018-07-28T05:57:59.118Z,29.20
2018-07-28T06:00:27.596Z,29.40
2018-07-28T06:02:55.975Z,29.80
2018-07-28T06:05:24.417Z,29.90
2018-07-28T06:07:52.870Z,30.20
2018-07-28T06:10:21.253Z,30.50
2018-07-28T06:12:49.577Z,30.70
2018-07-28T06:15:17.973Z,31.00
2018-07-28T06:17:46.321Z,31.10
2018-07-28T06:20:14.747Z,31.40
2018-07-28T06:22:43.171Z,31.60
2018-07-28T06:25:11.613Z,31.40
2018-07-28T06:27:39.977Z,31.60
2018-07-28T06:30:09.475Z,31.50
2018-07-28T06:32:38.104Z,31.70
2018-07-28T06:35:06.559Z,31.50
2018-07-28T06:37:35.049Z,31.30
2018-07-28T06:40:03.679Z,31.40
2018-07-28T06:42:32.077Z,31.00
2018-07-28T06:45:00.465Z,31.00
2018-07-28T06:47:28.969Z,30.90
2018-07-28T06:49:57.383Z,30.70
2018-07-28T06:52:26.076Z,30.60
2018-07-28T06:54:54.675Z,30.40
2018-07-28T06:57:23.239Z,30.20
2018-07-28T06:59:51.777Z,30.40
2018-07-28T07:02:20.093Z,30.30
2018-07-28T07:04:48.537Z,30.20
2018-07-28T07:07:16.821Z,30.20
2018-07-28T07:09:45.260Z,29.90
2018-07-28T07:12:13.836Z,30.00
2018-07-28T07:14:42.256Z,30.10
2018-07-28T07:17:10.581Z,30.20
2018-07-28T07:19:38.903Z,30.40
2018-07-28T07:22:07.267Z,30.40
2018-07-28T07:24:35.716Z,30.40
2018-07-28T07:27:04.218Z,30.30
2018-07-28T07:29:32.660Z,30.60
2018-07-28T07:32:01.079Z,31.10
2018-07-28T07:34:29.499Z,31.10
2018-07-28T07:36:57.903Z,31.10
2018-07-28T07:39:26.267Z,30.90
2018-07-28T07:41:54.840Z,30.70
2018-07-28T07:44:23.274Z,30.60
2018-07-28T07:46:51.663Z,31.20
2018-07-28T07:49:19.992Z,31.20
2018-07-28T07:51:48.369Z,31.50
2018-07-28T07:54:16.715Z,31.60
2018-07-28T07:56:45.093Z,31.80
2018-07-28T07:59:13.414Z,32.00
2018-07-28T08:01:41.698Z,31.80
2018-07-28T08:04:10.033Z,31.90
2018-07-28T08:06:38.413Z,31.70
2018-07-28T08:09:08.550Z,31.20
2018-07-28T08:11:37.054Z,30.80
2018-07-28T08:14:05.832Z,31.00
2018-07-28T08:16:34.269Z,31.20
2018-07-28T08:19:02.701Z,31.50
2018-07-28T08:23:59.146Z,32.00
2018-07-28T08:26:27.487Z,32.30
2018-07-28T08:28:55.932Z,32.20
2018-07-28T08:31:24.323Z,32.10
2018-07-28T08:33:52.763Z,32.10
2018-07-28T08:36:21.130Z,31.40
2018-07-28T08:38:49.444Z,31.60
2018-07-28T08:41:17.849Z,32.00
2018-07-28T08:43:46.384Z,32.00
2018-07-28T08:46:14.858Z,32.30
2018-07-28T08:48:43.852Z,32.30
2018-07-28T08:51:12.751Z,32.20
2018-07-28T08:53:41.141Z,32.30
2018-07-28T08:56:09.577Z,31.70
2018-07-28T08:58:38.014Z,32.00
2018-07-28T09:01:06.478Z,32.10
2018-07-28T09:03:34.867Z,31.80
2018-07-28T09:06:03.301Z,32.20
2018-07-28T09:08:31.709Z,32.30
2018-07-28T09:11:00.101Z,32.50
2018-07-28T09:13:28.565Z,32.60
2018-07-28T09:15:57.001Z,32.50
2018-07-28T09:18:25.351Z,32.70
2018-07-28T09:20:53.812Z,32.90
2018-07-28T09:23:22.242Z,32.80
2018-07-28T09:25:50.513Z,32.60
2018-07-28T09:28:18.923Z,32.80
2018-07-28T09:30:47.343Z,33.00
2018-07-28T09:33:15.811Z,33.10
2018-07-28T09:35:44.205Z,32.60
2018-07-28T09:38:12.536Z,32.60
2018-07-28T09:40:40.910Z,32.50
2018-07-28T09:43:09.373Z,32.70
2018-07-28T09:45:37.730Z,32.80
2018-07-28T09:48:06.323Z,32.70
2018-07-28T09:50:34.661Z,33.00
2018-07-28T09:53:03.052Z,33.20
2018-07-28T09:55:31.503Z,33.10
2018-07-28T09:57:59.996Z,32.80
2018-07-28T10:00:33.700Z,32.90
2018-07-28T10:03:02.070Z,33.00
2018-07-28T10:05:30.495Z,33.20
2018-07-28T10:07:58.914Z,33.00
2018-07-28T10:10:27.370Z,32.80
2018-07-28T10:12:55.830Z,32.50
2018-07-28T10:15:24.203Z,31.90
2018-07-28T10:17:52.553Z,31.80
2018-07-28T10:20:20.917Z,32.10
2018-07-28T10:22:49.343Z,32.40
2018-07-28T10:25:17.695Z,32.50
2018-07-28T10:27:46.124Z,32.50
2018-07-28T10:30:14.522Z,32.10
2018-07-28T10:32:42.924Z,31.70
2018-07-28T10:35:12.262Z,31.80
2018-07-28T10:37:40.648Z,31.50
2018-07-28T10:40:09.971Z,31.20
2018-07-28T10:42:38.662Z,31.10
2018-07-28T10:45:07.365Z,30.80
2018-07-28T10:47:35.731Z,30.50
2018-07-28T10:50:04.513Z,30.20
2018-07-28T10:52:32.859Z,29.90
2018-07-28T10:55:01.255Z,29.90
2018-07-28T10:57:29.716Z,29.70
2018-07-28T10:59:58.132Z,29.50
2018-07-28T11:02:26.600Z,29.40
2018-07-28T11:04:55.053Z,29.30
2018-07-28T11:07:23.531Z,29.20
2018-07-28T11:09:51.861Z,29.20
2018-07-28T11:12:20.321Z,29.70
2018-07-28T11:14:49.592Z,29.90
2018-07-28T11:17:17.939Z,30.00
2018-07-28T11:19:46.393Z,29.80
2018-07-28T11:22:14.829Z,29.60
2018-07-28T11:24:43.280Z,29.70
2018-07-28T11:27:11.669Z,29.80
2018-07-28T11:29:39.992Z,30.20
2018-07-28T11:32:19.557Z,30.50
2018-07-28T11:34:59.277Z,30.80
2018-07-28T11:37:51.188Z,30.70
2018-07-28T11:40:30.961Z,30.60
2018-07-28T11:45:33.156Z,30.40
2018-07-28T11:48:01.548Z,30.40
2018-07-28T11:50:29.869Z,30.20
2018-07-28T11:52:58.403Z,30.40
2018-07-28T11:55:26.820Z,30.40
2018-07-28T11:57:55.252Z,30.30
2018-07-28T12:00:23.653Z,30.30
2018-07-28T12:02:52.055Z,30.10
2018-07-28T12:05:20.464Z,30.20
2018-07-28T12:07:48.821Z,30.40
2018-07-28T12:10:17.208Z,30.20
2018-07-28T12:12:45.601Z,30.20
2018-07-28T12:15:14.006Z,30.40
2018-07-28T12:17:42.345Z,30.60
2018-07-28T12:20:10.672Z,30.40
2018-07-28T12:22:39.214Z,30.50
2018-07-28T12:25:07.644Z,30.60
2018-07-28T12:27:36.045Z,30.80
2018-07-28T12:30:05.491Z,30.70
2018-07-28T12:32:33.906Z,30.50
2018-07-28T12:35:02.416Z,30.60
2018-07-28T12:37:30.758Z,30.30
2018-07-28T12:39:59.219Z,29.80
2018-07-28T12:42:27.637Z,29.50
2018-07-28T12:44:56.084Z,29.30
2018-07-28T12:47:24.520Z,29.30
2018-07-28T12:49:52.926Z,29.30
2018-07-28T12:52:21.286Z,29.20
2018-07-28T12:54:49.752Z,29.20
2018-07-28T12:57:18.104Z,29.40
2018-07-28T12:59:46.793Z,29.50
2018-07-28T13:02:15.144Z,29.60
2018-07-28T13:04:43.466Z,29.80
2018-07-28T13:07:11.847Z,29.90
2018-07-28T13:09:40.284Z,30.10
2018-07-28T13:12:08.745Z,30.20
2018-07-28T13:14:37.077Z,30.20
2018-07-28T13:17:05.624Z,30.40
2018-07-28T13:19:33.890Z,30.30
2018-07-28T13:22:02.367Z,30.10
2018-07-28T13:24:30.793Z,29.90
2018-07-28T13:26:59.180Z,29.80
2018-07-28T13:29:27.803Z,29.90
2018-07-28T13:31:56.120Z,29.90
2018-07-28T13:34:24.531Z,30.00
2018-07-28T13:36:52.932Z,29.70
2018-07-28T13:39:21.319Z,29.50
2018-07-28T13:41:49.756Z,29.60
2018-07-28T13:44:18.120Z,29.80
2018-07-28T13:46:46.479Z,29.50
2018-07-28T13:49:14.876Z,29.30
2018-07-28T13:51:43.424Z,29.00
2018-07-28T13:54:11.903Z,29.00
2018-07-28T13:56:40.259Z,28.90
2018-07-28T13:59:08.703Z,28.90
2018-07-28T14:01:37.152Z,29.00
2018-07-28T14:04:05.885Z,29.10
2018-07-28T14:06:34.208Z,29.10
2018-07-28T14:09:02.651Z,29.30
2018-07-28T14:11:31.085Z,29.50
2018-07-28T14:13:59.528Z,29.60
2018-07-28T14:16:27.963Z,29.70
2018-07-28T14:18:56.333Z,29.80
2018-07-28T14:21:24.701Z,29.60
2018-07-28T14:23:53.131Z,29.30
2018-07-28T14:26:21.528Z,29.10
2018-07-28T14:28:50.137Z,29.10
2018-07-28T14:31:18.484Z,29.20
2018-07-28T14:33:46.825Z,29.20
2018-07-28T14:36:15.244Z,29.40
2018-07-28T14:38:43.716Z,29.50
2018-07-28T14:41:12.115Z,29.40
2018-07-28T14:43:40.518Z,29.30
2018-07-28T14:46:08.935Z,29.50
2018-07-28T14:48:37.357Z,29.50
2018-07-28T14:51:05.736Z,29.60
2018-07-28T14:53:34.099Z,29.60
2018-07-28T14:56:02.487Z,29.60
2018-07-28T14:58:30.936Z,29.60
2018-07-28T15:00:59.387Z,29.40
2018-07-28T15:03:27.757Z,29.40
2018-07-28T15:05:56.168Z,29.30
2018-07-28T15:08:24.750Z,29.30
2018-07-28T15:10:53.110Z,29.40
2018-07-28T15:13:21.814Z,29.50
2018-07-28T15:15:50.360Z,29.50
2018-07-28T15:18:18.671Z,29.40
2018-07-28T15:20:47.019Z,29.20
2018-07-28T15:23:15.500Z,29.30
2018-07-28T15:25:44.030Z,29.30
2018-07-28T15:28:12.910Z,29.10
2018-07-28T15:30:41.294Z,28.90
2018-07-28T15:33:09.688Z,28.60
2018-07-28T15:35:38.095Z,28.40
2018-07-28T15:38:06.490Z,28.30
2018-07-28T15:40:34.950Z,28.30
2018-07-28T15:43:03.329Z,28.30
2018-07-28T15:45:31.704Z,28.30
2018-07-28T15:48:00.063Z,28.30
2018-07-28T15:50:28.485Z,28.30
2018-07-28T15:52:56.932Z,28.30
2018-07-28T15:55:25.331Z,28.20
2018-07-28T15:57:53.693Z,28.10
2018-07-28T16:00:22.148Z,28.00
2018-07-28T16:02:50.657Z,28.10
2018-07-28T16:05:19.220Z,27.90
2018-07-28T16:07:47.841Z,27.70
2018-07-28T16:10:16.513Z,27.80
2018-07-28T16:12:45.074Z,27.70
2018-07-28T16:15:13.363Z,27.60
2018-07-28T16:17:41.779Z,27.60
2018-07-28T16:20:10.242Z,27.60
2018-07-28T16:22:38.631Z,27.60
2018-07-28T16:25:07.110Z,27.60
2018-07-28T16:27:35.541Z,27.60
2018-07-28T16:30:04.911Z,27.50
2018-07-28T16:32:33.297Z,27.30
2018-07-28T16:35:01.772Z,27.20
2018-07-28T16:37:30.185Z,27.20
2018-07-28T16:39:58.524Z,27.20
2018-07-28T16:42:26.925Z,27.00
2018-07-28T16:44:55.357Z,27.00
2018-07-28T16:47:23.763Z,26.80
2018-07-28T16:49:52.702Z,26.80
2018-07-28T16:52:21.179Z,26.80
2018-07-28T16:54:49.535Z,26.70
2018-07-28T16:57:17.938Z,26.60
2018-07-28T16:59:46.362Z,26.50
2018-07-28T17:02:14.843Z,26.50
2018-07-28T17:04:43.131Z,26.50
2018-07-28T17:07:11.567Z,26.40
2018-07-28T17:09:39.854Z,26.20
2018-07-28T17:12:08.208Z,26.10
2018-07-28T17:14:36.552Z,26.10
2018-07-28T17:17:04.895Z,26.00
2018-07-28T17:19:33.256Z,25.90
2018-07-28T17:22:01.592Z,26.10
2018-07-28T17:24:29.881Z,26.10
2018-07-28T17:26:58.244Z,25.90
2018-07-28T17:29:26.677Z,25.90
2018-07-28T17:31:54.985Z,25.90
2018-07-28T17:34:23.304Z,25.90
2018-07-28T17:36:51.640Z,25.90
2018-07-28T17:39:19.927Z,25.90
2018-07-28T17:41:48.286Z,25.80
2018-07-28T17:44:16.744Z,25.70
2018-07-28T17:46:45.238Z,25.80
2018-07-28T17:49:13.477Z,25.80
2018-07-28T17:51:41.785Z,25.70
2018-07-28T17:54:10.175Z,25.50
2018-07-28T17:56:38.593Z,25.40
2018-07-28T17:59:06.966Z,25.30
2018-07-28T18:01:35.461Z,25.40
2018-07-28T18:04:03.901Z,25.30
2018-07-28T18:06:32.282Z,25.20
2018-07-28T18:09:00.841Z,25.20
2018-07-28T18:11:29.296Z,25.20
2018-07-28T18:13:57.751Z,25.00
2018-07-28T18:16:26.231Z,25.00
2018-07-28T18:18:54.778Z,25.10
2018-07-28T18:21:23.124Z,24.90
2018-07-28T18:23:51.504Z,24.90
2018-07-28T18:26:19.891Z,24.80
2018-07-28T18:28:48.260Z,24.80
2018-07-28T18:31:16.631Z,24.70
2018-07-28T18:33:45.023Z,24.70
2018-07-28T18:36:13.452Z,24.60
2018-07-28T18:38:41.857Z,24.70
2018-07-28T18:41:10.205Z,24.60
2018-07-28T18:43:38.581Z,24.60
2018-07-28T18:46:07.024Z,24.60
2018-07-28T18:48:35.433Z,24.60
2018-07-28T18:51:03.812Z,24.60
2018-07-28T18:53:32.150Z,24.60
2018-07-28T18:56:00.572Z,24.50
2018-07-28T18:58:29.072Z,24.50
2018-07-28T19:00:57.500Z,24.50
2018-07-28T19:03:25.955Z,24.40
2018-07-28T19:05:54.326Z,24.40
2018-07-28T19:08:22.731Z,24.40
2018-07-28T19:10:52.684Z,24.40
2018-07-28T19:13:26.994Z,24.40
2018-07-28T19:15:55.569Z,24.40
2018-07-28T19:18:29.205Z,24.40
2018-07-28T19:20:57.738Z,24.30
2018-07-28T19:23:31.443Z,24.30
2018-07-28T19:25:59.812Z,24.30
2018-07-28T19:28:33.575Z,24.40
2018-07-28T19:31:02.028Z,24.40
2018-07-28T19:33:30.399Z,24.40
2018-07-28T19:36:03.986Z,24.30
2018-07-28T19:38:32.462Z,24.20
2018-07-28T19:41:00.958Z,24.20
2018-07-28T19:43:29.372Z,24.20
2018-07-28T19:45:57.766Z,24.10
2018-07-28T19:48:26.159Z,24.10
2018-07-28T19:50:54.513Z,24.10
2018-07-28T19:53:22.862Z,24.10
2018-07-28T19:55:51.237Z,24.10
2018-07-28T19:58:19.591Z,24.10
2018-07-28T20:00:47.941Z,24.10
2018-07-28T20:03:16.509Z,24.00
2018-07-28T20:05:45.237Z,24.00
2018-07-28T20:08:13.624Z,24.00
2018-07-28T20:10:41.960Z,23.90
2018-07-28T20:13:10.424Z,23.90
2018-07-28T20:15:38.769Z,23.90
2018-07-28T20:18:07.399Z,23.80
2018-07-28T20:20:35.815Z,23.80
2018-07-28T20:23:04.218Z,23.80
2018-07-28T20:25:32.624Z,23.90
2018-07-28T20:28:01.046Z,23.70
2018-07-28T20:30:29.509Z,23.70
2018-07-28T20:32:57.948Z,23.70
2018-07-28T20:35:26.298Z,23.60
2018-07-28T20:37:54.661Z,23.60
2018-07-28T20:40:23.084Z,23.50
2018-07-28T20:42:51.473Z,23.50
2018-07-28T20:45:19.846Z,23.50
2018-07-28T20:47:48.225Z,23.50
2018-07-28T20:50:16.609Z,23.40
2018-07-28T20:52:45.096Z,23.50
2018-07-28T20:55:13.463Z,23.50
2018-07-28T20:57:41.833Z,23.40
2018-07-28T21:00:10.246Z,23.30
2018-07-28T21:02:38.565Z,23.40
2018-07-28T21:05:07.033Z,23.30
2018-07-28T21:07:35.403Z,23.30
2018-07-28T21:10:03.856Z,23.20
2018-07-28T21:12:32.270Z,23.10
2018-07-28T21:15:00.924Z,23.10
2018-07-28T21:17:29.349Z,23.10
2018-07-28T21:19:57.815Z,23.10
2018-07-28T21:22:26.185Z,23.10
2018-07-28T21:24:54.539Z,23.00
2018-07-28T21:27:22.993Z,22.90
2018-07-28T21:29:51.413Z,22.90
2018-07-28T21:32:20.043Z,22.90
2018-07-28T21:34:48.422Z,22.80
2018-07-28T21:37:16.854Z,22.80
2018-07-28T21:39:45.266Z,22.80
2018-07-28T21:42:13.704Z,22.80
2018-07-28T21:44:42.068Z,22.80
2018-07-28T21:47:10.419Z,22.90
2018-07-28T21:49:38.823Z,22.80
2018-07-28T21:52:07.322Z,22.80
2018-07-28T21:54:35.720Z,22.70
2018-07-28T21:57:04.112Z,22.70
2018-07-28T21:59:32.649Z,22.60
2018-07-28T22:02:01.008Z,22.60
2018-07-28T22:06:59.957Z,22.50
2018-07-28T22:09:28.852Z,22.60
2018-07-28T22:11:57.200Z,22.60
2018-07-28T22:14:25.811Z,22.50
2018-07-28T22:16:54.154Z,22.50
2018-07-28T22:19:22.662Z,22.50
2018-07-28T22:21:51.120Z,22.40
2018-07-28T22:24:19.589Z,22.50
2018-07-28T22:26:47.986Z,22.50
2018-07-28T22:29:16.394Z,22.40
2018-07-28T22:31:44.829Z,22.40
2018-07-28T22:34:13.235Z,22.40
2018-07-28T22:36:41.709Z,22.40
2018-07-28T22:39:11.227Z,22.30
2018-07-28T22:41:39.742Z,22.30
2018-07-28T22:44:08.181Z,22.30
2018-07-28T22:46:36.773Z,22.30
2018-07-28T22:49:05.228Z,22.30
2018-07-28T22:51:33.665Z,22.20
2018-07-28T22:54:01.979Z,22.20
2018-07-28T22:56:30.289Z,22.20
2018-07-28T22:58:58.740Z,22.10
2018-07-28T23:01:27.036Z,22.20
2018-07-28T23:03:55.349Z,22.10
2018-07-28T23:06:23.695Z,22.00
2018-07-28T23:08:52.108Z,22.00
2018-07-28T23:11:20.462Z,22.10
2018-07-28T23:13:48.836Z,22.10
2018-07-28T23:16:17.190Z,22.10
2018-07-28T23:18:45.589Z,22.10
2018-07-28T23:21:13.874Z,22.00
2018-07-28T23:23:42.231Z,22.00
2018-07-28T23:26:10.562Z,21.90
2018-07-28T23:28:38.937Z,22.00
2018-07-28T23:31:07.533Z,22.00
2018-07-28T23:33:35.903Z,21.90
2018-07-28T23:36:04.351Z,22.00
2018-07-28T23:38:32.713Z,22.00
2018-07-28T23:41:01.336Z,22.00
2018-07-28T23:43:29.729Z,21.90
2018-07-28T23:45:58.112Z,21.90
2018-07-28T23:48:26.689Z,21.90
2018-07-28T23:50:55.943Z,21.80
2018-07-28T23:53:24.464Z,21.80
2018-07-28T23:55:52.825Z,21.70
2018-07-28T23:58:21.189Z,21.60
